METAR Data
IDs: Format: Raw Decoded Include TAF

Data at: 1116 UTC 26 Sep 2018

KPIE 261105Z 13006KT 10SM SCT012 26/25 A3005 RMK AO2 T02610250
KPIE 261053Z 15005KT 10SM BKN013 26/25 A3005 RMK AO2 SLP175 T02610250
KPIE 261003Z 13006KT 10SM BKN013 27/25 A3004 RMK AO2 T02670250
KPIE 260953Z 13007KT 10SM SCT013 26/25 A3004 RMK AO2 SLP171 T02610250
KPIE 260853Z AUTO 13007KT 10SM CLR 26/25 A3004 RMK AO2 SLP173 T02610250 58016
KPIE 260753Z AUTO 12007KT 10SM CLR 27/25 A3006 RMK AO2 SLP179 T02670250
KPIE 260653Z AUTO 11006KT 10SM FEW038 27/25 A3008 RMK AO2 SLP184 T02670250
KPIE 260553Z AUTO 11008KT 10SM CLR 27/25 A3009 RMK AO2 SLP189 T02720250 10283 20272 58006
KPIE 260453Z AUTO 10004KT 10SM CLR 27/25 A3009 RMK AO2 SLP190 T02720250 403330256
KPIE 260353Z AUTO 12007KT 10SM OVC060 27/25 A3012 RMK AO2 SLP197 T02720250
KPIE 260253Z 11007KT 10SM FEW055 28/25 A3011 RMK AO2 SLP195 T02780250 53024
KPIE 260153Z 11008KT 10SM SCT035 SCT055 28/25 A3007 RMK AO2 SLP184 T02830250
KPIE 260053Z 00000KT 10SM OVC065 28/25 A3006 RMK AO2 SLP180 T02780250
KPIE 252353Z 32005KT 10SM CLR 27/24 A3004 RMK AO2 SLP171 60003 T02720244 10333 20267 51011
KPIE 252344Z 34005KT 10SM CLR 27/24 A3003 RMK AO2 LTG DSNT W T02670244
KPIE 252329Z 32004KT 10SM VCTS FEW055 27/24 A3002 RMK AO2 T02670244
KPIE 252253Z 25004KT 10SM BKN055 28/25 A3003 RMK AO2 LTG DSNT SW-N TSE24 SLP168 T02780250
KPIE 252230Z 23004KT 10SM VCTS SCT047 SCT065 28/25 A3002 RMK AO2 LTG DSNT ALQDS TSE24 T02780250
KPIE 252153Z 14005KT 10SM TS SCT050 BKN065 OVC100 28/25 A3001 RMK AO2 LTG DSNT S AND SW RAB24E48 TSB00E16B25 SLP163 P0003 T02780250
KPIE 252131Z 10013G19KT 5SM TSRA BKN046 BKN055 OVC095 28/25 A3001 RMK AO2 LTG DSNT SE-SW RAB24 TSB00E16B25 P0002 T02780250
KPIE 252122Z 10011G18KT 10SM VCTS OVC048 30/23 A3000 RMK AO2 LTG DSNT SE AND S TSB00E16 T03000233
KPIE 252100Z 00000KT 10SM TS FEW050 SCT060 33/22 A3001 RMK AO2 LTG DSNT SE AND S TSB00 T03280217
KPIE 252053Z 00000KT 10SM SCT060 33/22 A3001 RMK AO2 LTG DSNT E-S SLP160 T03280222 56023
KPIE 251953Z 02004KT 10SM SCT040 33/23 A3002 RMK AO2 LTG DSNT E SLP166 T03330233
KPIE 251853Z 06005KT 10SM SCT030 33/23 A3005 RMK AO2 SLP175 T03280233
KPIE 251753Z 07005KT 10SM SCT030 32/24 A3008 RMK AO2 SLP184 T03220239 10322 20267 58007
KPIE 251653Z COR 09007KT 10SM SCT030 32/24 A3009 RMK AO2 SLP190 T03170244
KPIE 251553Z 13008KT 10SM SCT009 31/24 A3010 RMK AO2 SLP191 T03060244
KPIE 251453Z 11010KT 10SM CLR 29/24 A3010 RMK AO2 SLP191 T02940244 51007
KPIE 251353Z 10009KT 10SM CLR 28/24 A3010 RMK AO2 SLP191 T02830244
KPIE 251253Z 10007KT 10SM SCT023 27/24 A3008 RMK AO2 SLP187 T02720244
KPIE 251202Z 10005KT 10SM SCT023 27/24 A3008 RMK AO2 T02670244
KPIE 251153Z COR 11006KT 10SM SCT024 27/24 A3008 RMK AO2 SLP184 70005 T02670244 10267 20256 53015
KPIE 251053Z 10005KT 10SM CLR 26/24 A3006 RMK AO2 SLP179 T02610244
KPIE 250953Z 11006KT 10SM CLR 26/24 A3004 RMK AO2 SLP173 T02610244
KPIE 250853Z AUTO 10005KT 10SM CLR 26/24 A3003 RMK AO2 SLP169 T02610244 56006
KPIE 250753Z AUTO 11006KT 10SM CLR 26/24 A3003 RMK AO2 SLP170 T02560244
KPIE 250653Z AUTO 11007KT 10SM CLR 26/24 A3004 RMK AO2 SLP172 T02610239
KPIE 250553Z AUTO 11008KT 10SM CLR 26/24 A3005 RMK AO2 SLP175 60005 T02610239 10272 20256 58007
KPIE 250453Z AUTO 10007KT 10SM CLR 27/24 A3007 RMK AO2 SLP181 T02670239 403330250
KPIE 250353Z AUTO 05005KT 10SM BKN085 OVC100 26/25 A3007 RMK AO2 RAB08E45 TSB0258E13 SLP181 P0000 T02610250
KPIE 250317Z AUTO 05003KT 10SM -RA OVC090 26/24 A3007 RMK AO2 RAB08 TSB0258E13 P0000 T02610244
KPIE 250304Z AUTO 00000KT 10SM TS FEW055 SCT075 OVC090 26/24 A3007 RMK AO2 LTG DSNT S TSB0258 T02610244
KPIE 250253Z 04003KT 10SM VCTS FEW045 SCT055 OVC080 26/24 A3007 RMK AO2 LTG DSNT S RAE04 TSE53 SLP182 P0000 60005 T02610244 53016
KPIE 250153Z 04006KT 10SM -RA SCT070 BKN085 OVC110 26/23 A3004 RMK AO2 SLP172 P0003 T02610233
KPIE 250053Z 06006KT 10SM -RA FEW120 26/23 A3002 RMK AO2 RAE03B23 TSE2359B00E49 SLP166 P0002 T02610228
KPIE 242353Z 05005KT 10SM -TSRA FEW045 SCT070 BKN100 27/23 A3002 RMK AO2 LTG DSNT ALQDS RAB05 SLP165 P0000 60000 T02670228 10333 20256 51018